Mitchelltown, VA

1:20 AM EDT on May 01, 2017 (GMT -0400)
MLKRV2 | | Change Station

Elev 2578 ft 37.99 °N, 79.76 °W | Updated 27 minutes ago

Fog
Fog
67.0 °F
Feels Like 67.0 °F
N
3.0
Wind Variable Wind from SW

Today
High -- | Low -- °F
--% Chance of Precip.
Yesterday
High -- | Low -- °F
Precip. -- in
Pressure 30.12 in
Visibility 0.2 miles
Clouds Overcast 200 ft
Dew Point 61.0 °F
Humidity 82%
Rainfall in
Snow Depth Not available.
6:22 AM 8:10 PM
Waxing Crescent, 29% visible
METAR KHSP 010515Z AUTO 18010KT 1/4SM FG OVC002 16/15 A3012 RMK AO2
Pressure 30.12 in
Visibility 0.2 miles
Clouds Overcast 200 ft
Dew Point 61.0 °F
Humidity 82%
Rainfall in
Snow Depth Not available.
6:22 AM 8:10 PM
Waxing Crescent, 29% visible
METAR KHSP 010515Z AUTO 18010KT 1/4SM FG OVC002 16/15 A3012 RMK AO2

Get Severe Weather Alerts

Thanks for signing up!

Be on the lookout for a verification email in your inbox.

You'll start receiving the daily forecast at 8 AM.

×

10-Day Weather Forecast

Almanac

Astronomy

May. 01, 2017 Rise Set
Actual Time
Civil Twilight
Nautical Twilight
Astronomical Twilight
Moon
Length of Visible Light
Length of Day
Tomorrow will be .
, % of the Moon is Illuminated

Today's Extremes

State Highs State Lows

Community

WunderPhotos

WunderBlog® & News

Nearby

Air Quality

  Air Quality AQ Index Pollutant
Not available.

Snow Depth

Station Depth Elevation

Earthquake Activity

City Distance Mag. Time & Date
Minimum magnitude displayed is 2.5.

Coastal Water Temperatures

Place Temperature

Stations

Nearby Weather Stations

Station Location Temp. Windchill Dew Point Humidity Wind Precip. Elev Updated Type
                   

Watches & Warnings

There are currently no watches in effect.